Hindsville, Arkansas
Current Conditions -  °F | °C
As of 3:48 PM on Tuesday 25 Nov 2014 (Local Time) from KASG Reporting Station
Clear Clear  
Wind Chill: 42°   Ceiling: Unl
Heat Index: 46°   Visibility: 10mi
Dew Point: 21°   Wind: 8mph
Humidity: 37%   Direction: 300°WNW
Pressure: 30.16"   Gusts: NA
Location:  36.14°N, 93.86°W
Report Text: KASG 252148Z 30007KT 10SM SKC 08/M06 A3016
Loading
Personal Weather Stations






























Interactive Weather Map New forecast layout! Learn more

10-Day Weather Forecast

Advertisements
Track Severe Weather on mobile